Time;durP1;ratioP1;P1;durP2;ratioP2;P2;SDS_P1;SDS_P2;PMS_P1;PMS_P2;Temp;Humidity;BMP_temperature;BMP_pressure;BME280_temperature;BME280_humidity;BME280_pressure;Samples;Min_cycle;Max_cycle;Signal;HPM_P1;HPM_P2
2023/06/22 00:01:47;;;;;;;14.55;10.50;;;;;;;18.36;100.00;97841.72;5037671;28;20093;-79
2023/06/22 00:04:13;;;;;;;15.98;10.65;;;;;;;18.26;100.00;97829.97;5037889;28;20016;-79
2023/06/22 00:06:38;;;;;;;13.82;10.43;;;;;;;18.30;100.00;97847.69;5037920;28;20028;-79
2023/06/22 00:09:04;;;;;;;27.85;11.05;;;;;;;18.29;100.00;97851.38;5037587;28;20032;-79
2023/06/22 00:11:32;;;;;;;15.13;10.20;;;;;;;18.33;100.00;97852.84;5054064;28;20147;-78
2023/06/22 00:13:58;;;;;;;16.45;10.93;;;;;;;18.39;100.00;97852.28;5054468;28;20041;-78
2023/06/22 00:16:23;;;;;;;17.52;10.73;;;;;;;18.37;100.00;97848.84;5054000;28;20031;-78
2023/06/22 00:18:49;;;;;;;19.30;10.55;;;;;;;18.34;100.00;97849.13;5053908;28;20463;-78
2023/06/22 00:21:14;;;;;;;17.95;11.00;;;;;;;18.30;100.00;97858.53;5037433;28;20052;-77
2023/06/22 00:23:41;;;;;;;21.40;10.48;;;;;;;18.25;100.00;97858.06;5037589;28;20059;-78
2023/06/22 00:26:06;;;;;;;16.30;10.38;;;;;;;18.17;100.00;97852.47;5037211;28;20115;-78
2023/06/22 00:28:32;;;;;;;18.10;10.80;;;;;;;18.12;100.00;97850.13;5037330;28;20111;-78
2023/06/22 00:30:58;;;;;;;16.75;11.10;;;;;;;18.15;100.00;97854.47;5053578;28;20036;-78
2023/06/22 00:33:23;;;;;;;15.70;10.25;;;;;;;18.08;100.00;97847.84;5033735;28;20037;-78
2023/06/22 00:35:52;;;;;;;17.33;10.77;;;;;;;18.01;100.00;97850.22;5051141;28;20077;-78
2023/06/22 00:38:18;;;;;;;15.15;10.35;;;;;;;17.97;100.00;97851.47;5054154;28;20408;-78
2023/06/22 00:40:43;;;;;;;19.60;9.75;;;;;;;17.85;100.00;97842.59;5053540;28;20032;-78
2023/06/22 00:43:09;;;;;;;16.52;10.38;;;;;;;17.90;100.00;97835.91;5053527;28;20035;-79
2023/06/22 00:45:35;;;;;;;17.33;10.38;;;;;;;17.87;100.00;97829.75;5053821;28;20036;-78
2023/06/22 00:48:00;;;;;;;16.20;10.13;;;;;;;17.73;100.00;97827.41;5036644;28;20459;-79
2023/06/22 00:50:33;;;;;;;14.88;9.98;;;;;;;17.77;100.00;97839.69;5053743;28;20027;-79
2023/06/22 00:53:00;;;;;;;18.13;10.82;;;;;;;17.73;100.00;97838.22;5036582;28;20492;-79
2023/06/22 00:55:26;;;;;;;22.13;10.93;;;;;;;17.76;100.00;97837.97;5036623;28;20028;-78
2023/06/22 00:57:55;;;;;;;15.13;10.15;;;;;;;17.88;100.00;97841.44;5052621;28;20029;-78
2023/06/22 01:00:25;;;;;;;16.77;10.65;;;;;;;17.86;100.00;97849.72;5030017;28;20032;-78
2023/06/22 01:02:52;;;;;;;14.70;9.95;;;;;;;17.87;100.00;97846.00;5036654;28;20028;-78
2023/06/22 01:05:21;;;;;;;15.15;10.82;;;;;;;17.80;100.00;97852.97;5037061;28;20093;-79
2023/06/22 01:08:05;;;;;;;17.77;10.60;;;;;;;17.75;100.00;97852.47;5053308;28;20032;-79
2023/06/22 01:11:02;;;;;;;18.67;10.40;;;;;;;17.74;100.00;97855.31;5052998;28;20043;-80
2023/06/22 01:13:45;;;;;;;17.00;10.55;;;;;;;17.72;100.00;97866.28;5053016;28;20029;-79
2023/06/22 01:16:16;;;;;;;16.05;11.60;;;;;;;17.70;100.00;97872.81;5048755;28;20063;-79
2023/06/22 01:18:42;;;;;;;22.08;11.63;;;;;;;17.71;100.00;97866.41;5053183;28;20369;-79
2023/06/22 01:21:12;;;;;;;19.42;11.27;;;;;;;17.79;100.00;97867.47;5036329;28;20036;-79
2023/06/22 01:24:15;;;;;;;16.92;11.25;;;;;;;17.80;100.00;97865.63;5052763;28;20183;-79
2023/06/22 01:26:52;;;;;;;15.60;10.98;;;;;;;17.66;100.00;97852.41;5052797;28;20043;-79
2023/06/22 01:29:19;;;;;;;22.90;12.25;;;;;;;17.74;100.00;97858.91;5036318;28;20029;-79
2023/06/22 01:31:45;;;;;;;20.83;12.43;;;;;;;17.68;100.00;97850.44;5032485;28;20469;-79
2023/06/22 01:34:12;;;;;;;18.40;11.68;;;;;;;17.72;100.00;97858.16;5036260;28;20086;-79
2023/06/22 01:36:38;;;;;;;18.52;11.82;;;;;;;17.62;100.00;97850.97;5036536;28;20388;-79
2023/06/22 01:39:04;;;;;;;19.20;12.95;;;;;;;17.61;100.00;97846.53;5036068;28;20134;-80
2023/06/22 01:41:34;;;;;;;19.80;12.25;;;;;;;17.62;100.00;97846.41;5070860;28;20021;-79
2023/06/22 01:44:00;;;;;;;17.00;11.57;;;;;;;17.67;100.00;97848.72;5035801;28;20128;-79
2023/06/22 01:46:26;;;;;;;16.00;11.18;;;;;;;17.68;100.00;97856.72;5036082;28;20055;-79
2023/06/22 01:48:52;;;;;;;18.73;12.50;;;;;;;17.62;100.00;97854.53;5035748;28;20080;-79
2023/06/22 01:51:18;;;;;;;20.58;12.30;;;;;;;17.57;100.00;97867.59;5052946;28;20095;-79
2023/06/22 01:53:44;;;;;;;20.67;13.20;;;;;;;17.62;100.00;97873.47;5052450;28;20036;-80
2023/06/22 01:56:09;;;;;;;24.50;13.25;;;;;;;17.56;100.00;97867.72;5070503;28;20113;-79
2023/06/22 01:58:40;;;;;;;22.92;13.90;;;;;;;17.58;100.00;97873.84;5036052;28;20070;-79
2023/06/22 02:01:10;;;;;;;23.17;14.45;;;;;;;17.54;100.00;97873.22;5035830;28;20071;-79
2023/06/22 02:03:54;;;;;;;28.73;14.38;;;;;;;17.53;100.00;97885.06;5053613;28;20054;-79
2023/06/22 02:06:36;;;;;;;18.90;11.73;;;;;;;17.52;100.00;97888.72;5039544;28;20484;-79
2023/06/22 02:09:07;;;;;;;21.15;12.60;;;;;;;17.45;100.00;97889.38;5036772;28;20191;-79
2023/06/22 02:11:33;;;;;;;20.38;12.45;;;;;;;17.40;100.00;97894.31;5034871;28;20060;-79
2023/06/22 02:13:59;;;;;;;20.92;12.52;;;;;;;17.35;100.00;97884.72;5056842;28;20094;-79
2023/06/22 02:16:29;;;;;;;21.75;12.98;;;;;;;17.30;100.00;97884.25;5036367;28;20039;-78
2023/06/22 02:18:56;;;;;;;19.33;11.88;;;;;;;17.29;100.00;97881.69;5035121;28;20032;-78
2023/06/22 02:21:22;;;;;;;20.58;13.13;;;;;;;17.29;100.00;97876.28;5056457;28;20056;-79
2023/06/22 02:23:47;;;;;;;23.15;12.65;;;;;;;17.28;100.00;97870.03;5039543;28;20157;-79
2023/06/22 02:26:13;;;;;;;18.73;12.82;;;;;;;17.30;100.00;97868.03;5056273;28;20035;-79
2023/06/22 02:28:39;;;;;;;22.73;13.10;;;;;;;17.28;100.00;97863.75;5056500;28;20480;-79
2023/06/22 02:31:04;;;;;;;18.23;12.88;;;;;;;17.22;100.00;97865.13;5039492;28;20039;-78
2023/06/22 02:33:30;;;;;;;21.52;12.75;;;;;;;17.23;100.00;97865.97;5039271;28;20102;-79
2023/06/22 02:35:56;;;;;;;22.17;11.77;;;;;;;17.25;100.00;97853.19;5039518;28;20082;-79
2023/06/22 02:38:24;;;;;;;20.40;12.30;;;;;;;17.15;100.00;97863.06;5055866;28;20115;-79
2023/06/22 02:40:50;;;;;;;35.33;13.20;;;;;;;17.12;100.00;97868.72;5056621;28;20060;-78
2023/06/22 02:43:15;;;;;;;19.95;12.02;;;;;;;17.13;100.00;97867.75;5039014;28;20526;-79
2023/06/22 02:45:41;;;;;;;18.95;11.55;;;;;;;17.13;100.00;97859.63;5039158;28;20400;-78
2023/06/22 02:48:06;;;;;;;27.45;11.68;;;;;;;17.08;100.00;97872.66;5055750;28;20577;-79
2023/06/22 02:50:32;;;;;;;20.70;12.23;;;;;;;17.10;100.00;97873.41;5039166;28;20036;-79
2023/06/22 02:52:58;;;;;;;19.13;11.57;;;;;;;17.06;100.00;97880.91;5055730;28;20027;-79
2023/06/22 02:55:23;;;;;;;26.45;13.07;;;;;;;17.18;100.00;97868.22;5055834;28;20082;-78
2023/06/22 02:57:52;;;;;;;18.70;11.82;;;;;;;17.28;100.00;97866.47;5039297;28;20028;-78
2023/06/22 03:00:19;;;;;;;19.08;12.05;;;;;;;17.33;100.00;97880.44;5039516;28;20028;-78
2023/06/22 03:02:46;;;;;;;21.70;12.85;;;;;;;17.42;100.00;97893.19;5039129;28;20086;-78
2023/06/22 03:05:13;;;;;;;21.63;12.43;;;;;;;17.50;100.00;97901.53;5039102;28;20024;-78
2023/06/22 03:07:42;;;;;;;22.38;11.85;;;;;;;17.60;100.00;97907.91;5030722;28;20032;-78
2023/06/22 03:10:09;;;;;;;26.30;12.02;;;;;;;17.67;100.00;97909.09;5038735;28;20052;-79
2023/06/22 03:12:35;;;;;;;24.58;12.73;;;;;;;17.66;100.00;97910.09;5038658;28;20401;-79
2023/06/22 03:15:00;;;;;;;25.30;12.93;;;;;;;17.65;100.00;97902.97;5054730;28;20028;-79
2023/06/22 03:17:26;;;;;;;20.25;12.20;;;;;;;17.72;100.00;97909.56;5055019;28;20029;-78
2023/06/22 03:19:52;;;;;;;25.92;12.10;;;;;;;17.74;100.00;97909.44;5038795;28;20167;-78
2023/06/22 03:22:17;;;;;;;16.48;11.40;;;;;;;17.76;100.00;97905.63;5055288;28;20028;-78
2023/06/22 03:24:43;;;;;;;17.90;11.15;;;;;;;17.79;100.00;97910.78;5055041;28;20099;-79
2023/06/22 03:27:08;;;;;;;18.05;10.85;;;;;;;17.79;100.00;97894.53;5038545;28;20480;-78
2023/06/22 03:29:34;;;;;;;21.63;11.00;;;;;;;17.75;100.00;97895.78;5038365;28;20036;-78
2023/06/22 03:31:59;;;;;;;18.55;10.90;;;;;;;17.78;100.00;97906.34;5038056;28;20045;-78
2023/06/22 03:34:25;;;;;;;19.23;11.38;;;;;;;17.82;100.00;97913.22;5038498;28;20016;-79
2023/06/22 03:36:50;;;;;;;18.95;12.52;;;;;;;17.88;100.00;97911.81;5038378;28;20029;-78
2023/06/22 03:39:16;;;;;;;17.85;11.80;;;;;;;18.00;100.00;97918.91;5055310;28;20032;-82
2023/06/22 03:41:42;;;;;;;75.35;43.85;;;;;;;18.12;100.00;97914.28;5055402;28;20411;-80
2023/06/22 03:44:10;;;;;;;24.15;13.57;;;;;;;18.23;100.00;97911.50;5054608;28;20035;-86
2023/06/22 03:46:36;;;;;;;21.70;12.77;;;;;;;18.30;100.00;97910.81;5039153;28;20024;-86
2023/06/22 03:49:03;;;;;;;19.10;13.02;;;;;;;18.28;100.00;97909.25;5055673;28;20060;-86
2023/06/22 03:51:28;;;;;;;20.10;13.10;;;;;;;18.31;100.00;97900.84;5040114;28;20231;-87
2023/06/22 03:53:54;;;;;;;25.17;15.45;;;;;;;18.51;100.00;97902.72;5038827;28;20480;-86
2023/06/22 03:56:20;;;;;;;34.25;15.73;;;;;;;18.56;100.00;97896.88;5055799;28;20083;-87
2023/06/22 03:58:46;;;;;;;39.17;19.00;;;;;;;18.68;100.00;97896.63;5039249;28;20111;-87
2023/06/22 04:01:11;;;;;;;34.42;15.98;;;;;;;18.76;100.00;97887.84;5043906;28;20028;-88
2023/06/22 04:03:38;;;;;;;33.80;16.50;;;;;;;18.87;100.00;97885.88;5034500;28;20551;-89
2023/06/22 04:06:03;;;;;;;27.02;14.55;;;;;;;18.90;100.00;97877.47;5056015;28;20058;-87
2023/06/22 04:08:30;;;;;;;25.08;14.30;;;;;;;19.15;100.00;97877.94;5038531;28;20067;-85
2023/06/22 04:10:55;;;;;;;23.98;11.15;;;;;;;19.13;100.00;97874.53;5038367;28;20017;-86
2023/06/22 04:13:21;;;;;;;19.65;10.98;;;;;;;18.98;100.00;97865.06;5038070;28;20051;-86
2023/06/22 04:15:46;;;;;;;18.52;10.82;;;;;;;19.09;100.00;97878.50;5038620;28;20093;-86
2023/06/22 04:18:13;;;;;;;18.52;11.10;;;;;;;19.07;100.00;97869.66;5037978;28;21629;-84
2023/06/22 04:20:39;;;;;;;16.38;10.60;;;;;;;19.08;100.00;97863.22;5038305;28;20045;-85
2023/06/22 04:23:04;;;;;;;18.50;10.23;;;;;;;19.13;100.00;97869.09;5035480;28;20029;-86
2023/06/22 04:25:31;;;;;;;17.50;10.60;;;;;;;19.03;100.00;97869.06;5031775;28;20029;-87
2023/06/22 04:27:57;;;;;;;44.58;27.98;;;;;;;18.87;100.00;97875.03;5054097;28;20108;-85
2023/06/22 04:30:22;;;;;;;28.08;12.30;;;;;;;18.80;100.00;97879.28;5055252;28;20111;-86
2023/06/22 04:32:55;;;;;;;29.10;12.77;;;;;;;18.77;100.00;97884.97;5037627;28;20035;-86
2023/06/22 04:35:22;;;;;;;21.95;12.02;;;;;;;18.72;100.00;97889.97;5022902;28;20108;-84
2023/06/22 04:37:49;;;;;;;31.45;12.80;;;;;;;18.57;100.00;97893.19;5037811;28;20020;-83
2023/06/22 04:40:15;;;;;;;23.40;12.63;;;;;;;18.66;100.00;97887.78;5037384;28;20027;-85
2023/06/22 04:42:42;;;;;;;25.40;12.43;;;;;;;18.78;100.00;97892.13;5037325;28;20020;-81
2023/06/22 04:45:10;;;;;;;21.35;11.70;;;;;;;18.99;100.00;97889.31;5072694;28;20020;-81
2023/06/22 04:47:39;;;;;;;27.00;12.93;;;;;;;19.15;100.00;97883.38;5045231;28;20080;-79
2023/06/22 04:50:05;;;;;;;26.48;13.55;;;;;;;19.36;100.00;97884.09;5071992;28;20086;-81
2023/06/22 04:52:31;;;;;;;23.13;12.98;;;;;;;19.81;100.00;97888.00;5036864;28;20162;-81
2023/06/22 04:54:59;;;;;;;25.35;13.40;;;;;;;20.32;100.00;97881.38;5054239;28;20510;-81
2023/06/22 04:57:31;;;;;;;20.98;13.43;;;;;;;20.99;100.00;97884.69;5053897;28;20029;-82
2023/06/22 04:59:57;;;;;;;21.50;12.60;;;;;;;21.90;100.00;97870.00;5072086;28;20119;-82
2023/06/22 05:02:27;;;;;;;24.45;12.60;;;;;;;22.84;100.00;97868.28;5028965;28;20126;-82
2023/06/22 05:04:56;;;;;;;23.05;12.18;;;;;;;23.90;100.00;97862.09;5037709;28;20032;-82
2023/06/22 05:07:25;;;;;;;22.38;10.77;;;;;;;24.70;100.00;97863.06;5052001;28;20033;-81
2023/06/22 05:09:50;;;;;;;17.23;9.85;;;;;;;24.93;100.00;97868.63;5049766;28;20060;-81
2023/06/22 05:12:16;;;;;;;14.73;10.65;;;;;;;25.23;100.00;97863.19;5054712;28;20606;-82
2023/06/22 05:14:42;;;;;;;22.27;11.27;;;;;;;25.80;100.00;97861.00;5054972;28;20533;-82
2023/06/22 05:17:13;;;;;;;22.67;11.00;;;;;;;26.16;100.00;97863.97;5054254;28;20120;-82
2023/06/22 05:19:38;;;;;;;15.23;11.20;;;;;;;26.85;100.00;97862.81;5054073;28;20031;-82
2023/06/22 05:22:04;;;;;;;17.88;11.27;;;;;;;27.57;100.00;97857.41;5053610;28;20024;-83
2023/06/22 05:24:29;;;;;;;20.92;10.60;;;;;;;28.18;100.00;97864.19;5055541;28;20040;-81
2023/06/22 05:26:55;;;;;;;36.42;10.98;;;;;;;28.24;100.00;97862.56;5037662;28;20111;-82
2023/06/22 05:29:22;;;;;;;19.33;10.25;;;;;;;28.64;97.95;97855.47;5048099;28;20507;-81
2023/06/22 05:31:47;;;;;;;13.73;10.30;;;;;;;28.96;95.12;97865.88;5055766;28;20090;-82
2023/06/22 05:34:13;;;;;;;28.38;11.02;;;;;;;29.39;93.54;97850.84;5056012;28;20119;-81
2023/06/22 05:36:38;;;;;;;27.52;11.43;;;;;;;29.80;89.53;97852.69;5056244;28;20024;-83
2023/06/22 05:39:14;;;;;;;16.67;11.13;;;;;;;30.25;87.12;97851.94;5047552;28;20431;-82
2023/06/22 05:41:40;;;;;;;15.13;10.90;;;;;;;30.37;83.72;97852.97;5054757;28;20234;-81
2023/06/22 05:44:05;;;;;;;30.90;10.98;;;;;;;29.90;85.23;97858.69;5029916;28;20142;-81
2023/06/22 05:46:49;;;;;;;25.73;12.32;;;;;;;29.62;88.62;97863.47;5035986;28;20036;-81
2023/06/22 05:49:15;;;;;;;31.17;12.57;;;;;;;29.86;88.50;97873.94;5072837;28;20558;-80
2023/06/22 05:51:41;;;;;;;21.70;10.95;;;;;;;30.50;84.90;97866.84;5059221;28;20024;-80
2023/06/22 05:54:07;;;;;;;17.92;10.80;;;;;;;30.77;84.88;97864.03;5061255;28;20048;-81
2023/06/22 05:56:33;;;;;;;24.70;11.07;;;;;;;30.86;81.89;97865.50;5042873;28;20028;-81
2023/06/22 05:58:59;;;;;;;16.35;10.80;;;;;;;31.16;79.84;97853.78;5032933;28;20028;-81
2023/06/22 06:01:25;;;;;;;35.10;15.95;;;;;;;31.66;77.57;97845.72;5074526;28;20068;-80
2023/06/22 06:03:52;;;;;;;19.20;9.80;;;;;;;32.12;73.47;97851.00;5041498;28;20116;-81
2023/06/22 06:06:21;;;;;;;17.10;11.30;;;;;;;32.17;71.09;97848.44;5057906;28;20029;-81
2023/06/22 06:08:47;;;;;;;22.70;11.55;;;;;;;32.03;71.62;97852.34;5043063;28;20020;-81
2023/06/22 06:11:12;;;;;;;16.35;10.93;;;;;;;31.98;73.29;97846.59;5060639;28;20107;-81
2023/06/22 06:13:38;;;;;;;28.42;12.75;;;;;;;32.59;71.51;97844.91;5079460;28;20118;-81
2023/06/22 06:16:03;;;;;;;21.50;10.93;;;;;;;32.87;66.88;97843.56;5061702;28;20024;-82
2023/06/22 06:18:29;;;;;;;16.33;10.73;;;;;;;33.04;66.49;97841.91;5028042;28;20088;-81
2023/06/22 06:20:54;;;;;;;23.58;11.38;;;;;;;33.29;64.38;97836.31;5063967;28;20020;-81
2023/06/22 06:23:20;;;;;;;30.77;14.10;;;;;;;33.23;64.20;97836.16;5063742;28;20028;-81
2023/06/22 06:25:45;;;;;;;21.13;12.18;;;;;;;33.21;64.39;97840.25;5083760;28;20020;-81
2023/06/22 06:28:11;;;;;;;29.95;12.73;;;;;;;33.82;60.77;97831.78;5083406;28;20030;-81
2023/06/22 06:30:37;;;;;;;15.70;9.93;;;;;;;34.19;57.38;97833.38;5065555;28;20020;-81
2023/06/22 06:33:04;;;;;;;23.92;10.48;;;;;;;33.20;62.44;97827.44;5064459;28;20020;-82
2023/06/22 06:35:30;;;;;;;16.98;9.52;;;;;;;33.92;59.75;97831.22;5045868;28;20024;-79
2023/06/22 06:37:55;;;;;;;14.13;9.10;;;;;;;34.08;57.10;97825.00;5064843;28;20048;-80
2023/06/22 06:40:21;;;;;;;11.48;9.18;;;;;;;33.53;57.83;97830.63;5064855;28;20024;-81
2023/06/22 06:42:48;;;;;;;14.40;9.23;;;;;;;33.84;57.78;97820.44;5082555;28;20021;-81
2023/06/22 06:45:23;;;;;;;21.20;9.68;;;;;;;34.00;58.62;97830.88;5064323;28;20412;-80
2023/06/22 06:47:51;;;;;;;13.02;9.95;;;;;;;34.32;56.83;97826.78;5065992;28;20476;-80
2023/06/22 06:50:17;;;;;;;19.77;10.43;;;;;;;32.80;63.16;97832.53;5063943;28;20020;-80
2023/06/22 06:52:42;;;;;;;20.33;8.90;;;;;;;33.42;62.57;97836.13;5052481;28;20488;-80
2023/06/22 06:55:13;;;;;;;14.95;9.13;;;;;;;34.24;57.35;97821.56;5050802;28;20024;-81
2023/06/22 06:57:39;;;;;;;16.25;8.65;;;;;;;34.47;56.02;97816.03;5041627;28;20132;-80
2023/06/22 07:00:09;;;;;;;14.88;9.20;;;;;;;33.93;57.65;97819.03;5075217;28;20495;-78
2023/06/22 07:02:35;;;;;;;14.05;8.90;;;;;;;33.92;59.43;97820.09;5038957;28;20029;-78
2023/06/22 07:05:03;;;;;;;14.05;9.32;;;;;;;33.95;56.87;97820.47;5055067;28;20506;-78
2023/06/22 07:07:29;;;;;;;17.63;9.57;;;;;;;34.64;56.39;97822.59;5056154;28;20217;-78
2023/06/22 07:09:54;;;;;;;13.52;8.07;;;;;;;34.55;54.47;97812.88;5055841;28;20025;-78
2023/06/22 07:12:20;;;;;;;20.75;8.57;;;;;;;35.03;53.85;97814.59;5055654;28;20032;-77
2023/06/22 07:14:46;;;;;;;11.13;8.90;;;;;;;34.33;55.82;97813.72;5038915;28;20032;-77
2023/06/22 07:17:12;;;;;;;14.15;9.32;;;;;;;34.40;55.20;97823.63;5055769;28;20048;-78
2023/06/22 07:19:37;;;;;;;10.52;8.82;;;;;;;35.00;54.36;97813.16;5038334;28;20050;-78
2023/06/22 07:22:03;;;;;;;15.23;8.90;;;;;;;35.35;51.82;97810.31;5036934;28;20377;-78
2023/06/22 07:24:28;;;;;;;17.40;8.15;;;;;;;35.39;52.12;97803.19;5055292;28;20036;-78
2023/06/22 07:26:54;;;;;;;14.98;8.27;;;;;;;35.14;52.12;97808.19;5054861;28;20476;-78
2023/06/22 07:29:21;;;;;;;11.48;8.07;;;;;;;35.79;51.27;97805.97;5072975;28;20024;-77
2023/06/22 07:31:47;;;;;;;12.00;8.40;;;;;;;36.88;47.44;97799.84;5038276;28;20391;-77
2023/06/22 07:34:13;;;;;;;17.13;8.32;;;;;;;37.03;46.69;97798.41;5054950;28;20373;-77
2023/06/22 07:36:38;;;;;;;13.63;8.82;;;;;;;37.58;44.56;97795.53;5055154;28;20032;-78
2023/06/22 07:39:04;;;;;;;19.88;7.82;;;;;;;37.36;44.80;97801.09;5038394;28;20480;-77
2023/06/22 07:41:31;;;;;;;14.70;8.25;;;;;;;37.28;44.47;97802.41;5055222;28;20406;-77
2023/06/22 07:43:56;;;;;;;13.02;8.23;;;;;;;37.87;44.01;97808.19;5054535;28;20024;-77
2023/06/22 07:46:22;;;;;;;9.80;7.47;;;;;;;38.41;42.51;97797.84;5072865;28;20036;-77
2023/06/22 07:48:48;;;;;;;10.65;8.02;;;;;;;37.51;42.28;97787.34;5072271;28;20421;-77
2023/06/22 07:51:14;;;;;;;17.33;8.18;;;;;;;38.72;40.68;97783.00;5055180;28;20165;-78
2023/06/22 07:53:43;;;;;;;10.63;8.32;;;;;;;39.72;38.84;97781.91;5054647;28;20508;-78
2023/06/22 07:56:12;;;;;;;15.95;8.40;;;;;;;38.80;40.94;97785.31;5037929;28;20028;-78
2023/06/22 07:58:38;;;;;;;13.23;7.45;;;;;;;39.09;39.68;97782.97;5054639;28;20125;-78
2023/06/22 08:01:04;;;;;;;14.05;8.10;;;;;;;39.40;39.10;97776.44;5037416;28;20052;-78
2023/06/22 08:03:30;;;;;;;12.88;7.20;;;;;;;39.17;38.66;97778.81;5054340;28;20118;-78
2023/06/22 08:05:56;;;;;;;14.88;7.72;;;;;;;39.05;39.22;97776.22;5072359;28;20538;-78
2023/06/22 08:08:21;;;;;;;15.77;9.35;;;;;;;39.55;39.34;97782.13;5072027;28;20027;-78
2023/06/22 08:10:47;;;;;;;8.30;7.38;;;;;;;38.67;39.32;97785.72;5054181;28;20488;-78
2023/06/22 08:13:12;;;;;;;8.85;6.97;;;;;;;38.86;39.07;97783.38;5053983;28;20024;-78
2023/06/22 08:15:38;;;;;;;11.85;7.43;;;;;;;39.14;39.28;97785.78;5054658;28;20035;-78
2023/06/22 08:18:03;;;;;;;11.65;7.30;;;;;;;38.84;39.95;97797.66;5054090;28;20490;-79
2023/06/22 08:20:29;;;;;;;11.40;7.40;;;;;;;38.85;40.20;97787.31;5037587;28;20101;-77
2023/06/22 08:22:55;;;;;;;8.40;6.88;;;;;;;39.53;38.97;97781.53;5037382;28;20032;-77
2023/06/22 08:25:21;;;;;;;7.68;6.72;;;;;;;39.37;38.49;97767.75;5053618;28;20090;-78
2023/06/22 08:27:50;;;;;;;10.30;6.95;;;;;;;39.59;37.99;97770.34;5053842;28;20477;-78
2023/06/22 08:30:18;;;;;;;9.63;7.30;;;;;;;40.21;37.14;97765.47;5037527;28;20066;-77
2023/06/22 08:32:43;;;;;;;9.05;7.43;;;;;;;40.52;36.42;97769.16;5054697;28;20029;-78
2023/06/22 08:35:09;;;;;;;11.52;7.10;;;;;;;39.56;36.31;97754.94;5054177;28;20081;-77
2023/06/22 08:37:35;;;;;;;11.32;7.53;;;;;;;39.82;36.63;97758.66;5053585;28;20056;-78
2023/06/22 08:40:08;;;;;;;8.60;6.47;;;;;;;40.45;34.51;97757.38;5037381;28;20040;-78
2023/06/22 08:42:34;;;;;;;7.68;6.88;;;;;;;40.63;33.83;97756.81;5054303;28;20123;-76
2023/06/22 08:45:00;;;;;;;11.93;6.45;;;;;;;40.14;35.57;97764.09;5053650;28;20039;-78
2023/06/22 08:47:27;;;;;;;10.13;7.10;;;;;;;41.02;35.40;97771.94;5053966;28;20052;-78
2023/06/22 08:49:53;;;;;;;9.10;6.65;;;;;;;40.57;35.98;97772.81;5037215;28;20039;-78
2023/06/22 08:52:19;;;;;;;12.68;6.72;;;;;;;41.67;33.67;97764.41;5054169;28;20025;-78
2023/06/22 08:54:45;;;;;;;6.60;5.95;;;;;;;41.49;32.15;97745.38;5072028;28;20033;-78
2023/06/22 08:57:11;;;;;;;13.23;6.65;;;;;;;41.64;32.49;97756.53;5071305;28;20024;-78
2023/06/22 08:59:36;;;;;;;11.45;6.38;;;;;;;41.85;34.02;97755.31;5053669;28;20107;-78
2023/06/22 09:02:02;;;;;;;7.32;6.43;;;;;;;41.16;34.39;97752.53;5036627;28;20020;-78
2023/06/22 09:04:27;;;;;;;11.10;6.78;;;;;;;41.13;35.43;97751.09;5053751;28;20567;-78
2023/06/22 09:06:53;;;;;;;10.05;6.07;;;;;;;41.61;34.06;97749.53;5053714;28;20500;-79
2023/06/22 09:09:19;;;;;;;11.13;6.28;;;;;;;41.49;34.26;97745.38;5053524;28;20032;-78
2023/06/22 09:11:44;;;;;;;8.80;6.03;;;;;;;41.90;33.10;97743.22;5053333;28;20420;-77
2023/06/22 09:14:11;;;;;;;7.22;6.07;;;;;;;41.04;34.28;97738.78;5052565;28;20039;-78
2023/06/22 09:16:36;;;;;;;9.02;5.85;;;;;;;41.58;34.64;97743.66;5053514;28;20107;-77
2023/06/22 09:19:02;;;;;;;26.88;10.50;;;;;;;42.59;34.83;97757.06;5054011;28;20063;-78
2023/06/22 09:21:28;;;;;;;14.60;7.10;;;;;;;43.08;32.85;97746.44;5071702;28;20124;-78
2023/06/22 09:23:53;;;;;;;6.88;5.97;;;;;;;43.05;31.76;97747.03;5053325;28;20032;-77
2023/06/22 09:26:19;;;;;;;7.63;6.47;;;;;;;44.20;31.05;97741.03;5053520;28;20567;-77
2023/06/22 09:28:45;;;;;;;12.43;7.55;;;;;;;44.29;31.44;97735.53;5053807;28;20033;-77
2023/06/22 09:31:10;;;;;;;11.02;7.07;;;;;;;43.74;31.50;97728.72;5053511;28;20122;-76
2023/06/22 09:33:37;;;;;;;12.63;6.43;;;;;;;44.05;31.44;97732.78;5036989;28;20036;-76
2023/06/22 09:36:07;;;;;;;6.80;6.10;;;;;;;43.56;31.81;97735.19;5036933;28;20032;-76
2023/06/22 09:38:35;;;;;;;6.57;5.85;;;;;;;42.79;32.10;97736.31;5053606;28;20025;-76
2023/06/22 09:41:00;;;;;;;7.22;6.22;;;;;;;42.93;31.96;97731.66;5036134;28;20472;-77
2023/06/22 09:43:27;;;;;;;9.27;6.50;;;;;;;42.70;31.83;97732.47;5053061;28;20035;-77
2023/06/22 09:45:52;;;;;;;6.68;6.07;;;;;;;42.38;31.89;97728.25;5036551;28;20025;-77
2023/06/22 09:48:18;;;;;;;7.75;6.32;;;;;;;41.48;33.19;97735.25;5052245;28;20044;-77
2023/06/22 09:50:43;;;;;;;7.68;6.28;;;;;;;41.98;32.61;97732.19;5052821;28;20039;-77
2023/06/22 09:53:09;;;;;;;9.93;5.70;;;;;;;42.10;32.83;97731.81;5070349;28;20040;-76
2023/06/22 09:55:35;;;;;;;7.57;6.03;;;;;;;41.92;31.99;97719.28;5028682;28;20629;-76
2023/06/22 09:58:00;;;;;;;16.20;6.40;;;;;;;42.57;31.04;97722.72;5071360;28;20503;-76
2023/06/22 10:00:26;;;;;;;9.52;5.90;;;;;;;43.14;30.52;97716.22;5071113;28;20492;-76
2023/06/22 10:02:52;;;;;;;8.02;6.05;;;;;;;43.53;29.24;97719.69;5031258;28;20098;-77
2023/06/22 10:05:18;;;;;;;6.18;5.57;;;;;;;42.98;30.46;97711.94;5052852;28;20029;-77
2023/06/22 10:07:43;;;;;;;6.45;5.50;;;;;;;43.60;29.25;97702.41;5052863;28;20071;-77
2023/06/22 10:10:12;;;;;;;6.07;5.47;;;;;;;44.03;29.11;97706.84;5036479;28;20032;-77
2023/06/22 10:12:43;;;;;;;7.40;5.80;;;;;;;44.11;29.25;97705.31;5052986;28;20115;-77
2023/06/22 10:15:10;;;;;;;13.05;6.18;;;;;;;44.46;28.91;97692.59;5053114;28;20116;-76
2023/06/22 10:17:35;;;;;;;6.25;5.65;;;;;;;44.88;29.24;97703.72;5019979;28;21533;-76
2023/06/22 10:20:10;;;;;;;7.40;6.05;;;;;;;44.75;28.81;97701.69;5052979;28;20107;-75
2023/06/22 10:22:37;;;;;;;13.75;7.80;;;;;;;45.07;29.34;97704.47;5053845;28;20590;-75
2023/06/22 10:25:03;;;;;;;12.85;6.65;;;;;;;44.90;28.77;97709.03;5048313;28;20479;-77
2023/06/22 10:27:28;;;;;;;10.93;6.68;;;;;;;45.21;28.63;97704.47;5056351;28;20060;-75
2023/06/22 10:29:53;;;;;;;6.70;5.90;;;;;;;44.63;28.16;97699.38;5040082;28;20024;-75
2023/06/22 10:32:19;;;;;;;8.30;6.68;;;;;;;45.13;27.98;97697.56;5056418;28;20032;-76
2023/06/22 10:34:45;;;;;;;6.72;6.07;;;;;;;45.27;27.83;97692.75;5056061;28;20532;-76
2023/06/22 10:37:10;;;;;;;8.82;6.63;;;;;;;45.43;27.70;97684.81;5074320;28;20091;-76
2023/06/22 10:39:36;;;;;;;8.15;6.50;;;;;;;44.89;28.81;97702.53;5056884;28;20443;-77
2023/06/22 10:42:01;;;;;;;7.68;6.25;;;;;;;44.84;28.51;97690.50;5074220;28;20020;-79
2023/06/22 10:44:27;;;;;;;7.05;6.45;;;;;;;41.69;31.02;97697.47;5056962;28;20020;-80
2023/06/22 10:46:52;;;;;;;11.48;6.38;;;;;;;41.07;32.21;97693.28;5053680;28;20509;-82
2023/06/22 10:49:18;;;;;;;8.88;6.43;;;;;;;42.24;31.58;97695.44;5030996;28;20024;-81
2023/06/22 10:51:43;;;;;;;9.85;7.00;;;;;;;43.28;30.47;97697.47;5036498;28;20403;-79
2023/06/22 10:54:09;;;;;;;9.23;6.20;;;;;;;42.32;30.73;97692.84;5053552;28;20043;-80
2023/06/22 10:56:34;;;;;;;12.90;7.03;;;;;;;41.38;31.15;97685.56;5036467;28;20032;-80
2023/06/22 10:59:01;;;;;;;15.48;6.93;;;;;;;41.25;32.07;97693.78;5053093;28;20039;-80
2023/06/22 11:01:31;;;;;;;10.43;7.22;;;;;;;40.63;33.32;97702.66;5053338;28;20031;-80
2023/06/22 11:03:57;;;;;;;11.07;7.32;;;;;;;40.22;34.25;97701.81;5051394;28;20040;-80
2023/06/22 11:06:22;;;;;;;9.02;6.28;;;;;;;39.60;34.17;97694.41;5036274;28;20527;-80
2023/06/22 11:08:48;;;;;;;12.77;9.07;;;;;;;39.09;34.92;97695.34;5052679;28;20028;-81
2023/06/22 11:11:13;;;;;;;12.15;7.90;;;;;;;39.59;35.90;97703.97;5035987;28;20024;-80
2023/06/22 11:13:39;;;;;;;12.95;7.75;;;;;;;40.68;34.43;97695.06;5052556;28;20032;-81
2023/06/22 11:16:05;;;;;;;13.40;6.85;;;;;;;40.15;34.41;97695.66;5035997;28;20020;-80
2023/06/22 11:18:33;;;;;;;18.40;7.93;;;;;;;39.83;35.09;97693.94;5035766;28;20039;-80